KLCI

Laconia Municipal Airport

Laconia, New Hampshire, USA
METAR KLCI 241256Z AUTO 28007KT 10SM BKN095 16/07 A3011 RMK AO2 SLP210 T01560067
Observed Flight Rules
May-24 @ 12:56 UTC (51 minutes ago) Visual Flight Rules
Wind Visibility Clouds
280° at 7 knots 10 miles
  • Broken at 9,500' AGL
Temperatures Readings
Current 16°C / 61°F
Dewpoint 7°C / 45°F
Humidity 55%
Altimeter 30.11" Hg
Pressure 1021 hPa
Elevation 166
METAR KLCI 241256Z AUTO 28007KT 10SM BKN095 16/07 A3011 RMK AO2 SLP210 T01560067
Observed Flight Rules
May-24 @ 12:56 UTC
(51 minutes ago)
VFR
Wind Visibility
280° at 7 knots 10 miles
Clouds
  • Broken at 9,500' AGL
Temperature Dewpoint
16°C / 61°F 7°C / 45°F
Humidity Altimeter Pressure
55% 30.11" Hg 1021 hPa